createdAt,value
2019-02-24T01:56:52.413Z,0.00
2019-02-24T01:57:52.320Z,0.00
2019-02-24T01:59:45.056Z,0.00
2019-02-24T02:00:44.972Z,0.00
2019-02-24T02:02:37.977Z,0.00
2019-02-24T02:03:37.717Z,0.00
2019-02-24T02:05:30.556Z,0.00
2019-02-24T02:06:30.551Z,0.00
2019-02-24T02:08:23.342Z,0.00
2019-02-24T02:09:23.249Z,0.00
2019-02-24T02:11:16.438Z,0.00
2019-02-24T02:12:16.358Z,0.00
2019-02-24T02:14:09.129Z,0.00
2019-02-24T02:15:09.089Z,0.00
2019-02-24T02:17:01.835Z,0.00
2019-02-24T02:18:01.735Z,0.00
2019-02-24T02:19:54.594Z,0.00
2019-02-24T02:20:54.500Z,0.00
2019-02-24T02:22:47.498Z,0.00
2019-02-24T02:23:47.373Z,0.00
2019-02-24T02:25:40.352Z,0.00
2019-02-24T02:26:40.059Z,0.00
2019-02-24T02:28:32.870Z,0.00
2019-02-24T02:29:32.801Z,0.00
2019-02-24T02:31:25.607Z,0.00
2019-02-24T02:32:25.459Z,0.00
2019-02-24T02:34:18.389Z,0.00
2019-02-24T02:35:18.307Z,0.00
2019-02-24T02:37:11.094Z,0.00
2019-02-24T02:38:10.999Z,0.00
2019-02-24T02:40:03.974Z,0.00
2019-02-24T02:41:03.728Z,0.00
2019-02-24T02:42:56.598Z,0.00
2019-02-24T02:43:56.615Z,0.00
2019-02-24T02:45:49.317Z,0.00
2019-02-24T02:46:49.236Z,0.00
2019-02-24T02:48:42.024Z,0.00
2019-02-24T02:49:41.929Z,0.00
2019-02-24T02:51:34.699Z,0.00
2019-02-24T02:52:34.609Z,0.00
2019-02-24T02:54:27.536Z,0.00
2019-02-24T02:55:27.471Z,0.00
2019-02-24T02:57:20.251Z,0.00
2019-02-24T02:58:20.164Z,0.00
2019-02-24T03:00:13.109Z,0.00
2019-02-24T03:01:13.243Z,0.00
2019-02-24T03:03:05.632Z,0.00
2019-02-24T03:04:05.554Z,0.00
2019-02-24T03:05:58.320Z,0.00
2019-02-24T03:06:58.359Z,0.00
2019-02-24T03:08:51.229Z,0.00
2019-02-24T03:09:51.008Z,0.00
2019-02-24T03:11:43.790Z,0.00
2019-02-24T03:12:43.699Z,0.00
2019-02-24T03:14:36.581Z,0.00
2019-02-24T03:15:36.545Z,0.00
2019-02-24T03:17:29.693Z,0.00
2019-02-24T03:18:29.379Z,0.00
2019-02-24T03:20:22.187Z,0.00
2019-02-24T03:21:22.078Z,0.00
2019-02-24T03:23:15.726Z,0.00
2019-02-24T03:24:15.707Z,0.00
2019-02-24T03:26:08.421Z,0.00
2019-02-24T03:27:08.333Z,0.00
2019-02-24T03:29:04.174Z,0.00
2019-02-24T03:30:01.481Z,0.00
2019-02-24T03:31:54.078Z,0.00
2019-02-24T03:32:54.229Z,0.00
2019-02-24T03:34:46.816Z,0.00
2019-02-24T03:35:46.764Z,0.00
2019-02-24T03:37:39.444Z,0.00
2019-02-24T03:38:39.362Z,0.00
2019-02-24T03:40:32.142Z,0.00
2019-02-24T03:41:32.106Z,0.00
2019-02-24T03:43:24.915Z,0.00
2019-02-24T03:44:24.768Z,0.00
2019-02-24T03:46:17.765Z,0.00
2019-02-24T03:47:17.653Z,0.00
2019-02-24T03:49:10.522Z,0.00
2019-02-24T03:50:10.509Z,0.00
2019-02-24T03:52:03.420Z,0.00
2019-02-24T03:53:03.321Z,0.00
2019-02-24T03:54:56.118Z,0.00
2019-02-24T03:55:57.613Z,0.00
2019-02-24T03:57:49.221Z,0.00
2019-02-24T03:58:49.092Z,0.00
2019-02-24T04:00:41.984Z,0.00
2019-02-24T04:01:42.009Z,0.00
2019-02-24T04:03:34.883Z,0.00
2019-02-24T04:04:34.795Z,0.00
2019-02-24T04:06:27.706Z,0.00
2019-02-24T04:07:27.621Z,0.00
2019-02-24T04:09:21.071Z,0.00
2019-02-24T04:10:21.048Z,0.00
2019-02-24T04:12:14.118Z,0.00
2019-02-24T04:13:13.791Z,0.00
2019-02-24T04:15:06.595Z,0.00
2019-02-24T04:16:06.533Z,0.00
2019-02-24T04:17:59.252Z,0.00
2019-02-24T04:18:59.309Z,0.00
2019-02-24T04:20:52.121Z,0.00
2019-02-24T04:21:52.205Z,0.00
2019-02-24T04:23:44.632Z,0.00
2019-02-24T04:24:44.583Z,0.00
2019-02-24T04:26:37.341Z,0.00
2019-02-24T04:27:37.261Z,0.00
2019-02-24T04:29:30.008Z,0.00
2019-02-24T04:30:29.978Z,0.00
2019-02-24T04:32:22.709Z,0.00
2019-02-24T04:33:22.643Z,0.00
2019-02-24T04:35:15.572Z,0.00
2019-02-24T04:36:15.382Z,0.00
2019-02-24T04:38:08.269Z,0.00
2019-02-24T04:39:08.129Z,0.00
2019-02-24T04:41:01.052Z,0.00
2019-02-24T04:42:01.106Z,0.00
2019-02-24T04:43:53.763Z,0.00
2019-02-24T04:44:53.661Z,0.00
2019-02-24T04:46:46.619Z,0.00
2019-02-24T04:47:46.245Z,0.00
2019-02-24T04:49:39.192Z,0.00
2019-02-24T04:50:39.230Z,0.00
2019-02-24T04:52:32.307Z,0.00
2019-02-24T04:53:32.143Z,0.00
2019-02-24T04:55:24.598Z,0.00
2019-02-24T04:56:24.606Z,0.00
2019-02-24T04:58:17.624Z,0.00
2019-02-24T04:59:17.300Z,0.00
2019-02-24T05:01:10.076Z,0.00
2019-02-24T05:02:10.029Z,0.00
2019-02-24T05:04:02.776Z,0.00
2019-02-24T05:05:02.671Z,0.00
2019-02-24T05:06:55.449Z,0.00
2019-02-24T05:07:55.495Z,0.00
2019-02-24T05:09:48.164Z,0.00
2019-02-24T05:10:48.194Z,0.00
2019-02-24T05:12:40.979Z,0.00
2019-02-24T05:13:40.791Z,0.00
2019-02-24T05:15:33.548Z,0.00
2019-02-24T05:16:33.487Z,0.00
2019-02-24T05:18:26.266Z,0.00
2019-02-24T05:19:26.573Z,0.00
2019-02-24T05:21:18.972Z,0.00
2019-02-24T05:22:18.860Z,0.00
2019-02-24T05:24:11.849Z,0.00
2019-02-24T05:25:11.631Z,0.00
2019-02-24T05:27:04.338Z,0.00
2019-02-24T05:28:04.268Z,0.00
2019-02-24T05:29:57.230Z,0.00
2019-02-24T05:30:57.031Z,0.00
2019-02-24T05:32:49.904Z,0.00
2019-02-24T05:33:49.666Z,0.00
2019-02-24T05:35:42.475Z,0.00
2019-02-24T05:36:42.443Z,0.00
2019-02-24T05:38:35.686Z,0.00
2019-02-24T05:39:35.851Z,0.00
2019-02-24T05:41:28.342Z,0.00
2019-02-24T05:42:28.297Z,0.00
2019-02-24T05:44:21.130Z,0.00
2019-02-24T05:45:21.077Z,0.00
2019-02-24T05:47:14.019Z,0.00
2019-02-24T05:48:14.056Z,0.00
2019-02-24T05:50:06.797Z,0.00
2019-02-24T05:51:06.691Z,0.00
2019-02-24T05:52:59.973Z,0.00
2019-02-24T05:53:59.444Z,0.00
2019-02-24T05:55:52.461Z,0.00
2019-02-24T05:56:52.301Z,0.00
2019-02-24T05:58:45.145Z,0.00
2019-02-24T05:59:54.741Z,0.00
2019-02-24T06:01:37.930Z,0.00
2019-02-24T06:02:37.939Z,0.00
2019-02-24T06:04:30.702Z,0.00
2019-02-24T06:05:30.522Z,0.00
2019-02-24T06:07:23.465Z,5.63
2019-02-24T06:08:23.228Z,5.63
2019-02-24T06:10:16.025Z,5.63
2019-02-24T06:11:15.943Z,5.63
2019-02-24T06:13:08.940Z,5.63
2019-02-24T06:14:08.797Z,5.63
2019-02-24T06:16:01.550Z,5.63
2019-02-24T06:17:01.793Z,5.63
2019-02-24T06:18:54.962Z,11.25
2019-02-24T06:19:55.050Z,11.25
2019-02-24T06:21:47.786Z,11.25
2019-02-24T06:22:47.704Z,11.25
2019-02-24T06:24:41.434Z,11.25
2019-02-24T06:25:40.640Z,11.25
2019-02-24T06:27:34.509Z,16.88
2019-02-24T06:28:34.524Z,16.88
2019-02-24T06:30:27.479Z,16.88
2019-02-24T06:31:27.386Z,16.88
2019-02-24T06:33:20.581Z,16.88
2019-02-24T06:34:20.271Z,16.88
2019-02-24T06:36:13.108Z,16.88
2019-02-24T06:37:13.024Z,16.88
2019-02-24T06:39:05.825Z,16.88
2019-02-24T06:40:05.812Z,16.88
2019-02-24T06:41:58.963Z,16.88
2019-02-24T06:42:58.717Z,16.88
2019-02-24T06:44:51.312Z,16.88
2019-02-24T06:45:51.610Z,16.88
2019-02-24T06:47:43.979Z,22.50
2019-02-24T06:48:43.873Z,22.50
2019-02-24T06:50:36.700Z,22.50
2019-02-24T06:51:36.574Z,22.50
2019-02-24T06:53:29.547Z,22.50
2019-02-24T06:54:29.310Z,22.50
2019-02-24T06:56:22.976Z,28.13
2019-02-24T06:57:22.868Z,28.13
2019-02-24T06:59:15.720Z,28.13
2019-02-24T07:00:15.620Z,33.75
2019-02-24T07:02:08.493Z,33.75
2019-02-24T07:03:08.491Z,33.75
2019-02-24T07:05:01.290Z,39.38
2019-02-24T07:06:01.412Z,39.38
2019-02-24T07:07:54.149Z,39.38
2019-02-24T07:08:54.002Z,45.00
2019-02-24T07:10:46.800Z,45.00
2019-02-24T07:11:46.678Z,50.63
2019-02-24T07:13:39.783Z,50.63
2019-02-24T07:14:39.605Z,56.25
2019-02-24T07:16:32.781Z,61.88
2019-02-24T07:17:32.714Z,61.88
2019-02-24T07:19:25.510Z,67.50
2019-02-24T07:20:25.453Z,67.50
2019-02-24T07:22:18.362Z,67.50
2019-02-24T07:23:18.331Z,67.50
2019-02-24T07:25:11.027Z,73.13
2019-02-24T07:26:11.012Z,73.13
2019-02-24T07:28:03.767Z,73.13
2019-02-24T07:29:03.626Z,73.13
2019-02-24T07:30:56.404Z,78.75
2019-02-24T07:31:56.339Z,78.75
2019-02-24T07:33:49.220Z,78.75
2019-02-24T07:34:49.046Z,78.75
2019-02-24T07:36:41.835Z,84.38
2019-02-24T07:37:41.804Z,84.38
2019-02-24T07:39:34.498Z,84.38
2019-02-24T07:40:34.418Z,84.38
2019-02-24T07:42:27.437Z,90.00
2019-02-24T07:43:27.289Z,90.00
2019-02-24T07:45:20.086Z,95.63
2019-02-24T07:46:20.003Z,95.63
2019-02-24T07:48:12.979Z,95.63
2019-02-24T07:49:12.737Z,101.25
2019-02-24T07:51:05.612Z,101.25
2019-02-24T07:52:05.681Z,101.25
2019-02-24T07:53:59.193Z,106.88
2019-02-24T07:54:59.155Z,106.88
2019-02-24T07:56:52.077Z,112.50
2019-02-24T07:57:51.979Z,112.50
2019-02-24T07:59:44.768Z,118.13
2019-02-24T08:00:44.681Z,118.13
2019-02-24T08:02:37.786Z,123.75
2019-02-24T08:03:37.955Z,123.75
2019-02-24T08:05:30.286Z,129.38
2019-02-24T08:06:30.271Z,129.38
2019-02-24T08:08:22.990Z,140.63
2019-02-24T08:09:23.072Z,146.25
2019-02-24T08:11:15.639Z,163.13
2019-02-24T08:12:15.565Z,174.38
2019-02-24T08:14:08.379Z,191.25
2019-02-24T08:15:08.272Z,191.25
2019-02-24T08:17:01.038Z,196.88
2019-02-24T08:18:00.965Z,202.50
2019-02-24T08:19:53.897Z,202.50
2019-02-24T08:20:53.725Z,202.50
2019-02-24T08:22:46.473Z,202.50
2019-02-24T08:23:46.365Z,202.50
2019-02-24T08:25:39.650Z,208.13
2019-02-24T08:26:39.576Z,213.75
2019-02-24T08:28:32.636Z,225.00
2019-02-24T08:29:32.635Z,230.63
2019-02-24T08:31:25.386Z,241.88
2019-02-24T08:32:25.271Z,253.13
2019-02-24T08:34:18.143Z,281.25
2019-02-24T08:35:17.971Z,292.50
2019-02-24T08:37:10.730Z,360.00
2019-02-24T08:38:10.670Z,596.25
2019-02-24T08:40:03.429Z,680.63
2019-02-24T08:41:03.362Z,691.88
2019-02-24T08:42:56.156Z,973.13
2019-02-24T08:43:56.067Z,1074.38
2019-02-24T08:45:48.902Z,438.75
2019-02-24T08:46:48.775Z,1186.88
2019-02-24T08:48:41.565Z,1400.63
2019-02-24T08:49:41.490Z,1350.00
2019-02-24T08:51:34.388Z,1400.63
2019-02-24T08:52:34.219Z,1400.63
2019-02-24T08:54:27.227Z,1423.13
2019-02-24T08:55:27.147Z,1423.13
2019-02-24T08:57:19.971Z,1389.38
2019-02-24T08:58:19.883Z,1400.63
2019-02-24T09:00:12.726Z,1411.88
2019-02-24T09:01:12.605Z,1428.75
2019-02-24T09:03:05.418Z,1445.63
2019-02-24T09:04:05.338Z,1428.75
2019-02-24T09:05:58.150Z,1254.38
2019-02-24T09:06:58.109Z,1158.75
2019-02-24T09:08:50.896Z,810.00
2019-02-24T09:09:50.811Z,720.00
2019-02-24T09:11:43.848Z,1344.38
2019-02-24T09:12:43.681Z,1288.13
2019-02-24T09:14:36.530Z,1361.25
2019-02-24T09:15:36.445Z,1265.63
2019-02-24T09:17:30.288Z,1220.63
2019-02-24T09:18:30.027Z,1220.63
2019-02-24T09:20:22.965Z,1203.75
2019-02-24T09:21:22.774Z,1192.50
2019-02-24T09:23:15.581Z,1181.25
2019-02-24T09:24:15.506Z,1170.00
2019-02-24T09:26:08.930Z,1175.63
2019-02-24T09:27:08.392Z,1170.00
2019-02-24T09:29:01.222Z,1181.25
2019-02-24T09:30:01.163Z,1181.25
2019-02-24T09:31:53.962Z,1265.63
2019-02-24T09:32:53.914Z,1344.38
2019-02-24T09:34:47.021Z,1434.38
2019-02-24T09:35:46.702Z,1473.75
2019-02-24T09:37:39.481Z,1681.88
2019-02-24T09:38:39.421Z,1968.75
2019-02-24T09:40:32.385Z,2109.38
2019-02-24T09:41:32.162Z,1918.13
2019-02-24T09:43:24.990Z,1861.88
2019-02-24T09:44:24.901Z,1923.75
2019-02-24T09:46:17.716Z,2340.00
2019-02-24T09:47:17.681Z,2221.88
2019-02-24T09:49:10.535Z,1963.13
2019-02-24T09:50:10.459Z,1833.75
2019-02-24T09:52:03.312Z,1580.63
2019-02-24T09:53:03.208Z,1541.25
2019-02-24T09:54:56.009Z,1406.25
2019-02-24T09:55:55.953Z,1350.00
2019-02-24T09:57:48.947Z,1293.75
2019-02-24T09:58:48.878Z,1231.88
2019-02-24T10:00:41.722Z,1158.75
2019-02-24T10:01:41.653Z,1130.63
2019-02-24T10:03:34.440Z,1113.75
2019-02-24T10:04:34.386Z,1040.63
2019-02-24T10:06:27.207Z,1001.25
2019-02-24T10:07:27.139Z,984.38
2019-02-24T10:09:20.135Z,956.25
2019-02-24T10:10:19.875Z,928.13
2019-02-24T10:12:12.723Z,900.00
2019-02-24T10:13:12.664Z,894.38
2019-02-24T10:15:05.523Z,855.00
2019-02-24T10:16:05.497Z,849.38
2019-02-24T10:17:58.235Z,838.13
2019-02-24T10:18:58.164Z,821.25
2019-02-24T10:20:51.025Z,804.38
2019-02-24T10:21:50.930Z,798.75
2019-02-24T10:23:43.752Z,781.88
2019-02-24T10:24:43.682Z,781.88
2019-02-24T10:26:36.540Z,781.88
2019-02-24T10:27:36.426Z,776.25
2019-02-24T10:29:29.321Z,759.38
2019-02-24T10:30:29.164Z,753.75
2019-02-24T10:32:22.031Z,736.88
2019-02-24T10:33:21.964Z,736.88
2019-02-24T10:35:14.829Z,736.88
2019-02-24T10:36:14.770Z,731.25
2019-02-24T10:38:07.522Z,736.88
2019-02-24T10:39:07.466Z,742.50
2019-02-24T10:41:00.315Z,765.00
2019-02-24T10:42:00.234Z,804.38
2019-02-24T10:43:53.031Z,900.00
2019-02-24T10:44:53.028Z,1006.88
2019-02-24T10:46:45.772Z,1518.75
2019-02-24T10:47:45.705Z,2396.25
2019-02-24T10:49:38.662Z,3915.00
2019-02-24T10:50:38.494Z,3425.63
2019-02-24T10:52:31.269Z,2829.38
2019-02-24T10:53:31.204Z,2486.25
2019-02-24T10:55:24.010Z,1833.75
2019-02-24T10:56:23.947Z,2109.38
2019-02-24T10:58:16.819Z,1642.50
2019-02-24T10:59:17.038Z,1473.75
2019-02-24T11:01:10.048Z,320.63
2019-02-24T11:02:10.014Z,163.13
2019-02-24T11:04:02.752Z,157.50
2019-02-24T11:05:02.818Z,151.88
2019-02-24T11:06:55.664Z,151.88
2019-02-24T11:07:55.583Z,151.88
2019-02-24T11:09:48.423Z,146.25
2019-02-24T11:10:48.386Z,146.25
2019-02-24T11:12:41.183Z,146.25
2019-02-24T11:13:41.116Z,140.63
2019-02-24T11:15:33.947Z,140.63
2019-02-24T11:16:33.813Z,140.63
2019-02-24T11:18:26.610Z,140.63
2019-02-24T11:19:26.534Z,140.63
2019-02-24T11:21:19.376Z,140.63
2019-02-24T11:22:19.573Z,135.00
2019-02-24T11:24:12.111Z,135.00
2019-02-24T11:25:12.066Z,135.00
2019-02-24T11:27:04.864Z,135.00
2019-02-24T11:28:04.792Z,135.00
2019-02-24T11:29:57.586Z,135.00
2019-02-24T11:30:57.491Z,135.00
2019-02-24T11:32:50.374Z,135.00
2019-02-24T11:33:50.287Z,135.00
2019-02-24T11:35:43.066Z,135.00
2019-02-24T11:36:43.002Z,135.00
2019-02-24T11:38:35.786Z,129.38
2019-02-24T11:39:35.709Z,129.38
2019-02-24T11:41:28.561Z,135.00
2019-02-24T11:42:28.458Z,129.38
2019-02-24T11:44:21.259Z,135.00
2019-02-24T11:45:21.186Z,135.00
2019-02-24T11:47:14.063Z,135.00
2019-02-24T11:48:13.930Z,135.00
2019-02-24T11:50:06.692Z,140.63
2019-02-24T11:51:06.640Z,140.63
2019-02-24T11:52:59.685Z,135.00
2019-02-24T11:53:59.396Z,135.00
2019-02-24T11:55:52.164Z,135.00
2019-02-24T11:56:52.122Z,135.00
2019-02-24T11:58:45.132Z,135.00
2019-02-24T11:59:44.807Z,135.00
2019-02-24T12:01:37.609Z,135.00
2019-02-24T12:02:37.518Z,135.00
2019-02-24T12:04:30.328Z,135.00
2019-02-24T12:05:30.239Z,135.00
2019-02-24T12:07:23.108Z,135.00
2019-02-24T12:08:23.050Z,135.00
2019-02-24T12:10:15.844Z,135.00
2019-02-24T12:11:15.735Z,135.00
2019-02-24T12:13:08.520Z,135.00
2019-02-24T12:14:08.434Z,135.00
2019-02-24T12:16:01.281Z,140.63
2019-02-24T12:17:01.196Z,140.63
2019-02-24T12:18:53.979Z,140.63
2019-02-24T12:19:53.907Z,140.63
2019-02-24T12:21:46.700Z,140.63
2019-02-24T12:22:46.604Z,140.63
2019-02-24T12:24:39.451Z,135.00
2019-02-24T12:25:39.325Z,140.63
2019-02-24T12:27:32.150Z,140.63
2019-02-24T12:28:32.050Z,140.63
2019-02-24T12:30:24.809Z,146.25
2019-02-24T12:31:24.747Z,146.25
2019-02-24T12:33:17.584Z,146.25
2019-02-24T12:34:17.499Z,146.25
2019-02-24T12:36:10.300Z,146.25
2019-02-24T12:37:10.265Z,146.25
2019-02-24T12:39:03.004Z,151.88
2019-02-24T12:40:02.927Z,151.88
2019-02-24T12:41:55.768Z,157.50
2019-02-24T12:42:55.687Z,163.13
2019-02-24T12:44:48.488Z,168.75
2019-02-24T12:45:48.415Z,168.75
2019-02-24T12:47:41.346Z,168.75
2019-02-24T12:48:41.146Z,174.38
2019-02-24T12:50:33.947Z,168.75
2019-02-24T12:51:33.844Z,168.75
2019-02-24T12:53:27.599Z,163.13
2019-02-24T12:54:26.557Z,163.13
2019-02-24T12:56:19.337Z,163.13
2019-02-24T12:57:19.302Z,163.13
2019-02-24T12:59:12.116Z,157.50
2019-02-24T13:00:12.011Z,157.50
2019-02-24T13:02:05.883Z,157.50
2019-02-24T13:03:04.867Z,157.50
2019-02-24T13:04:57.655Z,157.50
2019-02-24T13:05:57.583Z,151.88
2019-02-24T13:07:50.426Z,135.00
2019-02-24T13:08:50.355Z,123.75
2019-02-24T13:10:43.108Z,101.25
2019-02-24T13:11:43.036Z,106.88
2019-02-24T13:13:35.876Z,123.75
2019-02-24T13:14:35.750Z,135.00
2019-02-24T13:16:28.566Z,135.00
2019-02-24T13:17:28.486Z,135.00
2019-02-24T13:19:21.335Z,135.00
2019-02-24T13:20:21.236Z,135.00
2019-02-24T13:22:14.167Z,135.00
2019-02-24T13:23:13.985Z,135.00
2019-02-24T13:25:06.875Z,129.38
2019-02-24T13:26:06.818Z,129.38
2019-02-24T13:27:59.645Z,129.38
2019-02-24T13:28:59.588Z,129.38
2019-02-24T13:30:52.438Z,129.38
2019-02-24T13:31:52.374Z,129.38
2019-02-24T13:33:45.194Z,129.38
2019-02-24T13:34:45.148Z,129.38
2019-02-24T13:36:37.873Z,129.38
2019-02-24T13:37:37.831Z,129.38
2019-02-24T13:39:30.714Z,129.38
2019-02-24T13:40:30.555Z,106.88
2019-02-24T13:42:23.372Z,129.38
2019-02-24T13:43:23.316Z,129.38
2019-02-24T13:45:16.091Z,129.38
2019-02-24T13:46:15.998Z,129.38
2019-02-24T13:48:08.897Z,129.38
2019-02-24T13:49:08.751Z,129.38
2019-02-24T13:51:01.528Z,129.38
2019-02-24T13:52:01.425Z,123.75
2019-02-24T13:53:54.322Z,123.75
2019-02-24T13:54:54.191Z,129.38
2019-02-24T13:56:47.116Z,123.75
2019-02-24T13:57:47.049Z,123.75
2019-02-24T13:59:40.095Z,123.75
2019-02-24T14:00:39.972Z,123.75
2019-02-24T14:02:32.842Z,123.75
2019-02-24T14:03:32.758Z,123.75
2019-02-24T14:05:25.642Z,123.75
2019-02-24T14:06:25.542Z,123.75
2019-02-24T14:08:18.298Z,123.75
2019-02-24T14:09:18.228Z,123.75
2019-02-24T14:11:12.291Z,123.75
2019-02-24T14:12:11.543Z,123.75
2019-02-24T14:14:04.952Z,118.13
2019-02-24T14:15:04.758Z,118.13
2019-02-24T14:16:58.837Z,118.13
2019-02-24T14:17:58.787Z,118.13
2019-02-24T14:19:51.478Z,118.13
2019-02-24T14:20:51.283Z,118.13
2019-02-24T14:22:44.143Z,118.13
2019-02-24T14:23:44.030Z,118.13
2019-02-24T14:25:36.807Z,112.50
2019-02-24T14:26:36.801Z,112.50
2019-02-24T14:28:29.530Z,112.50
2019-02-24T14:29:29.433Z,112.50
2019-02-24T14:31:22.211Z,112.50
2019-02-24T14:32:22.203Z,112.50
2019-02-24T14:34:15.016Z,106.88
2019-02-24T14:35:14.850Z,106.88
2019-02-24T14:37:07.629Z,106.88
2019-02-24T14:38:07.564Z,106.88
2019-02-24T14:40:00.393Z,106.88
2019-02-24T14:41:00.302Z,106.88
2019-02-24T14:42:53.137Z,106.88
2019-02-24T14:43:53.071Z,106.88
2019-02-24T14:45:49.643Z,106.88
2019-02-24T14:46:45.841Z,106.88
2019-02-24T14:48:39.250Z,90.00
2019-02-24T14:49:39.135Z,101.25
2019-02-24T14:51:31.989Z,101.25
2019-02-24T14:52:31.889Z,101.25
2019-02-24T14:54:25.697Z,101.25
2019-02-24T14:55:24.615Z,95.63
2019-02-24T14:57:17.415Z,95.63
2019-02-24T14:58:17.358Z,95.63
2019-02-24T15:00:10.264Z,95.63
2019-02-24T15:01:10.187Z,95.63
2019-02-24T15:03:03.036Z,90.00
2019-02-24T15:04:02.880Z,90.00
2019-02-24T15:05:56.046Z,90.00
2019-02-24T15:06:55.698Z,90.00
2019-02-24T15:08:48.623Z,84.38
2019-02-24T15:09:48.541Z,84.38
2019-02-24T15:11:41.375Z,84.38
2019-02-24T15:12:41.271Z,84.38
2019-02-24T15:14:34.221Z,84.38
2019-02-24T15:15:34.103Z,78.75
2019-02-24T15:17:26.968Z,78.75
2019-02-24T15:18:26.949Z,78.75
2019-02-24T15:20:19.691Z,78.75
2019-02-24T15:21:20.386Z,78.75
2019-02-24T15:23:12.388Z,73.13
2019-02-24T15:24:12.368Z,73.13
2019-02-24T15:26:05.197Z,73.13
2019-02-24T15:27:05.139Z,73.13
2019-02-24T15:28:57.919Z,67.50
2019-02-24T15:29:57.814Z,67.50
2019-02-24T15:31:50.626Z,67.50
2019-02-24T15:32:51.903Z,67.50
2019-02-24T15:34:43.593Z,61.88
2019-02-24T15:35:43.451Z,61.88
2019-02-24T15:37:36.285Z,61.88
2019-02-24T15:38:36.239Z,61.88
2019-02-24T15:40:28.979Z,56.25
2019-02-24T15:41:29.922Z,56.25
2019-02-24T15:43:21.691Z,56.25
2019-02-24T15:44:21.606Z,56.25
2019-02-24T15:46:14.455Z,50.63
2019-02-24T15:47:14.386Z,50.63
2019-02-24T15:49:07.161Z,50.63
2019-02-24T15:50:07.100Z,50.63
2019-02-24T15:52:00.122Z,45.00
2019-02-24T15:53:00.060Z,45.00
2019-02-24T15:54:52.869Z,45.00
2019-02-24T15:55:52.781Z,39.38
2019-02-24T15:57:45.830Z,39.38
2019-02-24T15:58:45.534Z,39.38
2019-02-24T16:00:38.385Z,39.38
2019-02-24T16:01:38.384Z,33.75
2019-02-24T16:03:31.111Z,33.75
2019-02-24T16:04:31.006Z,33.75
2019-02-24T16:06:23.841Z,33.75
2019-02-24T16:07:23.750Z,28.13
2019-02-24T16:09:16.579Z,28.13
2019-02-24T16:10:16.466Z,28.13
2019-02-24T16:12:09.327Z,22.50
2019-02-24T16:13:16.665Z,22.50
2019-02-24T16:15:03.024Z,22.50
2019-02-24T16:16:01.888Z,16.88
2019-02-24T16:17:54.815Z,16.88
2019-02-24T16:18:54.654Z,16.88
2019-02-24T16:20:47.467Z,16.88
2019-02-24T16:21:49.473Z,11.25
2019-02-24T16:23:40.179Z,11.25
2019-02-24T16:24:40.121Z,11.25
2019-02-24T16:26:32.944Z,11.25
2019-02-24T16:27:32.845Z,11.25
2019-02-24T16:29:25.816Z,5.63
2019-02-24T16:30:25.662Z,5.63
2019-02-24T16:32:18.462Z,5.63
2019-02-24T16:33:18.370Z,5.63
2019-02-24T16:35:11.194Z,5.63
2019-02-24T16:36:11.091Z,5.63
2019-02-24T16:38:03.843Z,0.00
2019-02-24T16:39:03.769Z,0.00
2019-02-24T16:40:56.671Z,0.00
2019-02-24T16:41:56.589Z,0.00
2019-02-24T16:43:49.370Z,0.00
2019-02-24T16:44:49.297Z,0.00
2019-02-24T16:46:42.109Z,0.00
2019-02-24T16:47:42.016Z,0.00
2019-02-24T16:49:34.797Z,0.00
2019-02-24T16:50:34.729Z,0.00
2019-02-24T16:52:27.506Z,0.00
2019-02-24T16:53:27.421Z,0.00
2019-02-24T16:55:20.493Z,0.00
2019-02-24T16:56:20.369Z,0.00
2019-02-24T16:58:13.518Z,0.00
2019-02-24T16:59:13.186Z,0.00
2019-02-24T17:01:05.954Z,0.00
2019-02-24T17:02:05.875Z,0.00
2019-02-24T17:03:58.753Z,0.00
2019-02-24T17:04:58.626Z,0.00
2019-02-24T17:06:51.474Z,0.00
2019-02-24T17:07:51.389Z,0.00
2019-02-24T17:09:44.184Z,0.00
2019-02-24T17:10:44.114Z,0.00
2019-02-24T17:12:36.940Z,0.00
2019-02-24T17:13:37.055Z,0.00
2019-02-24T17:15:29.598Z,0.00
2019-02-24T17:16:29.521Z,0.00
2019-02-24T17:18:22.434Z,0.00
2019-02-24T17:19:22.242Z,0.00
2019-02-24T17:21:15.060Z,0.00
2019-02-24T17:22:14.957Z,0.00
2019-02-24T17:24:07.740Z,0.00
2019-02-24T17:25:07.708Z,0.00
2019-02-24T17:27:00.444Z,0.00
2019-02-24T17:28:00.466Z,0.00
2019-02-24T17:29:53.192Z,0.00
2019-02-24T17:30:53.143Z,0.00
2019-02-24T17:32:46.017Z,0.00
2019-02-24T17:33:45.878Z,0.00
2019-02-24T17:35:38.689Z,0.00
2019-02-24T17:36:38.593Z,0.00
2019-02-24T17:38:31.387Z,0.00
2019-02-24T17:39:31.324Z,0.00
2019-02-24T17:41:24.083Z,0.00
2019-02-24T17:42:24.677Z,0.00
2019-02-24T17:44:16.820Z,0.00
2019-02-24T17:45:16.752Z,0.00
2019-02-24T17:47:09.642Z,0.00
2019-02-24T17:48:09.544Z,0.00
2019-02-24T17:50:02.313Z,0.00
2019-02-24T17:51:02.245Z,0.00
2019-02-24T17:52:55.079Z,0.00
2019-02-24T17:53:55.008Z,0.00
2019-02-24T17:55:47.762Z,0.00
2019-02-24T17:56:47.754Z,0.00
2019-02-24T17:58:40.550Z,0.00
2019-02-24T17:59:40.870Z,0.00
2019-02-24T18:01:33.207Z,0.00
2019-02-24T18:02:33.659Z,0.00
2019-02-24T18:04:26.825Z,0.00
2019-02-24T18:05:26.754Z,0.00
2019-02-24T18:07:19.537Z,0.00
2019-02-24T18:08:27.909Z,0.00
2019-02-24T18:10:12.195Z,0.00
2019-02-24T18:11:12.135Z,0.00
2019-02-24T18:13:04.942Z,0.00
2019-02-24T18:14:04.936Z,0.00
2019-02-24T18:15:57.624Z,0.00
2019-02-24T18:16:57.695Z,0.00
2019-02-24T18:18:50.560Z,0.00
2019-02-24T18:19:50.426Z,0.00
2019-02-24T18:21:43.319Z,0.00
2019-02-24T18:22:43.189Z,0.00
2019-02-24T18:24:35.993Z,0.00
2019-02-24T18:25:35.917Z,0.00
2019-02-24T18:27:28.736Z,0.00
2019-02-24T18:28:28.574Z,0.00
2019-02-24T18:30:21.352Z,0.00
2019-02-24T18:31:21.333Z,0.00
2019-02-24T18:33:14.125Z,0.00
2019-02-24T18:34:14.032Z,0.00
2019-02-24T18:36:06.835Z,0.00
2019-02-24T18:37:06.767Z,0.00
2019-02-24T18:38:59.558Z,0.00
2019-02-24T18:39:59.464Z,0.00
2019-02-24T18:41:52.222Z,0.00
2019-02-24T18:42:59.771Z,0.00
2019-02-24T18:44:45.087Z,0.00
2019-02-24T18:45:44.872Z,0.00
2019-02-24T18:47:37.755Z,0.00
2019-02-24T18:48:38.060Z,0.00
2019-02-24T18:50:29.467Z,0.00
2019-02-24T18:51:29.378Z,0.00
2019-02-24T18:53:22.183Z,0.00
2019-02-24T18:54:22.143Z,0.00
2019-02-24T18:56:14.858Z,0.00
2019-02-24T18:57:15.981Z,0.00
2019-02-24T18:59:07.570Z,0.00
2019-02-24T19:00:07.490Z,0.00
2019-02-24T19:02:00.264Z,0.00
2019-02-24T19:03:00.189Z,0.00
2019-02-24T19:04:52.983Z,0.00
2019-02-24T19:05:52.892Z,0.00
2019-02-24T19:07:45.637Z,0.00
2019-02-24T19:08:45.569Z,0.00
2019-02-24T19:10:38.361Z,0.00
2019-02-24T19:11:38.272Z,0.00
2019-02-24T19:13:31.026Z,0.00
2019-02-24T19:14:30.945Z,0.00
2019-02-24T19:16:23.698Z,0.00
2019-02-24T19:17:23.684Z,0.00
2019-02-24T19:19:25.206Z,0.00
2019-02-24T19:20:16.325Z,0.00
2019-02-24T19:22:09.058Z,0.00
2019-02-24T19:23:08.992Z,0.00
2019-02-24T19:25:01.803Z,0.00
2019-02-24T19:26:01.710Z,0.00
2019-02-24T19:27:54.528Z,0.00
2019-02-24T19:28:54.462Z,0.00
2019-02-24T19:30:47.241Z,0.00
2019-02-24T19:31:47.145Z,0.00
2019-02-24T19:33:39.926Z,0.00
2019-02-24T19:34:39.855Z,0.00
2019-02-24T19:36:32.610Z,0.00
2019-02-24T19:37:32.540Z,0.00
2019-02-24T19:39:25.324Z,0.00
2019-02-24T19:40:25.251Z,0.00
2019-02-24T19:42:17.993Z,0.00
2019-02-24T19:43:17.921Z,0.00
2019-02-24T19:45:10.688Z,0.00
2019-02-24T19:46:10.606Z,0.00
2019-02-24T19:48:03.351Z,0.00
2019-02-24T19:49:03.305Z,0.00
2019-02-24T19:50:56.106Z,0.00
2019-02-24T19:51:55.973Z,0.00
2019-02-24T19:53:48.757Z,0.00
2019-02-24T19:54:48.673Z,0.00
2019-02-24T19:56:41.430Z,0.00
2019-02-24T19:57:41.369Z,0.00
2019-02-24T19:59:34.139Z,0.00
2019-02-24T20:00:34.062Z,0.00
2019-02-24T20:02:26.820Z,0.00
2019-02-24T20:03:26.754Z,0.00
2019-02-24T20:05:19.648Z,0.00
2019-02-24T20:06:19.438Z,0.00
2019-02-24T20:08:12.214Z,0.00
2019-02-24T20:09:12.140Z,0.00
2019-02-24T20:11:04.930Z,0.00
2019-02-24T20:12:04.851Z,0.00
2019-02-24T20:13:57.642Z,0.00
2019-02-24T20:14:57.570Z,0.00
2019-02-24T20:16:50.436Z,0.00
2019-02-24T20:17:50.291Z,0.00
2019-02-24T20:19:43.242Z,0.00
2019-02-24T20:20:43.088Z,0.00
2019-02-24T20:22:35.833Z,0.00
2019-02-24T20:23:35.768Z,0.00
2019-02-24T20:25:28.529Z,0.00
2019-02-24T20:26:28.443Z,0.00
2019-02-24T20:28:21.205Z,0.00